Flight Track Log - Related Links

Times and Time Zones

All times are in EDT time to prevent confusion due to time zone crossing. See the ASQ4131 flight status page for this flight to view local times or setup timezone preferences in your user account.

Time Position Orientation Groundspeed Altitude Reporting Facility
EDT Latitude Longitude Course Direction KTS MPH feet Rate Location/Type
Fri 05:14:49 PM 29.9625 -95.3411 105° East 152 175 900  Level Houston Center
Fri 05:15:26 PM 29.9550 -95.3094 101° East 191 220 1,900 1,553 Climbing Houston Center
Fri 05:16:14 PM 29.9442 -95.2469 99° East 246 283 3,100 1,167 Climbing Houston Center
Fri 05:17:14 PM 29.9336 -95.1697 87° East 237 273 4,000 1,250 Climbing Houston Center
Fri 05:18:14 PM 29.9375 -95.0956 93° East 271 312 5,600 1,700 Climbing Houston Center
Fri 05:19:14 PM 29.9333 -95.0117 87° East 271 312 7,400 1,950 Climbing Houston Center
Fri 05:20:14 PM 29.9378 -94.9161 82° East 276 318 9,500 1,650 Climbing Houston Center
Fri 05:21:14 PM 29.9506 -94.8133 82° East 299 344 10,700 1,500 Climbing Houston Center
Fri 05:22:14 PM 29.9636 -94.6986 85° East 334 384 12,500 1,850 Climbing Houston Center
Fri 05:23:14 PM 29.9725 -94.5861 84° East 350 403 14,400 1,650 Climbing Houston Center
Fri 05:24:14 PM 29.9833 -94.4594 84° East 355 409 15,800 1,500 Climbing Houston Center
Fri 05:25:14 PM 29.9942 -94.3400 83° East 362 417 17,400 1,300 Climbing Houston Center
Fri 05:26:14 PM 30.0069 -94.2178 82° East 374 430 18,400 1,000 Climbing Houston Center
Fri 05:27:14 PM 30.0219 -94.0911 82° East 380 437 19,400 1,000 Climbing Houston Center
Fri 05:28:14 PM 30.0389 -93.9547 82° East 398 458 20,400 1,000 Climbing Houston Center
Fri 05:29:14 PM 30.0558 -93.8183 83° East 416 479 21,400 1,000 Climbing Houston Center
Fri 05:30:14 PM 30.0703 -93.6772 81° East 429 494 22,400 1,000 Climbing Houston Center
Fri 05:31:14 PM 30.0892 -93.5358 82° East 434 499 23,400 950 Climbing Houston Center
Fri 05:32:14 PM 30.1056 -93.3944 82° East 444 511 24,300 950 Climbing Houston Center
Fri 05:33:14 PM 30.1219 -93.2531 81° East 444 511 25,300 1,000 Climbing Houston Center
Fri 05:34:14 PM 30.1403 -93.1214 61° Northeast 449 517 26,300 850 Climbing Houston Center
Fri 05:35:14 PM 30.2019 -92.9947 58° Northeast 436 502 27,000 600 Climbing Houston Center
Fri 05:36:14 PM 30.2700 -92.8683 57° Northeast 441 507 27,500 550 Climbing Houston Center
Fri 05:37:14 PM 30.3419 -92.7417 58° Northeast 462 532 28,100 550 Climbing Houston Center
Fri 05:38:14 PM 30.4119 -92.6122 59° Northeast 473 544 28,600 700 Climbing Houston Center
Fri 05:39:14 PM 30.4881 -92.4658 58° Northeast 473 544 29,500 850 Climbing Houston Center
Fri 05:40:14 PM 30.5556 -92.3386 58° Northeast 473 544 30,300 750 Climbing Houston Center
Fri 05:41:14 PM 30.6250 -92.2089 58° Northeast 473 544 31,000 350 Climbing Houston Center
Fri 05:42:14 PM 30.6983 -92.0739 58° Northeast 480 552 31,000  Level Houston Center
Fri 05:43:14 PM 30.7719 -91.9367 58° Northeast 487 560 31,000  Level Houston Center
Fri 05:44:14 PM 30.8450 -91.7989 58° Northeast 492 566 31,000  Level Houston Center
Fri 05:45:14 PM 30.9203 -91.6561 58° Northeast 492 566 31,000  Level Houston Center
Fri 05:46:14 PM 30.9953 -91.5181 58° Northeast 497 572 31,000 -50 Level Houston Center
Fri 05:47:14 PM 31.0703 -91.3800 58° Northeast 497 572 30,900  Descending Houston Center
Fri 05:48:14 PM 31.1431 -91.2414 59° Northeast 497 572 31,000 50 Climbing Houston Center
Fri 05:49:14 PM 31.2072 -91.1150 58° Northeast 478 550 31,000  Level Houston Center
Fri 05:50:14 PM 31.2794 -90.9808 60° Northeast 478 550 31,000  Level Houston Center
Fri 05:51:14 PM 31.3456 -90.8469 58° Northeast 478 550 31,000  Level Houston Center
Fri 05:52:45 PM 31.4525 -90.6422 59° Northeast 489 563 31,000  Level Memphis Center
Fri 05:53:45 PM 31.5194 -90.5133 58° Northeast 475 547 31,000  Level Memphis Center
Fri 05:54:45 PM 31.5883 -90.3817 59° Northeast 470 541 31,000  Level Memphis Center
Fri 05:55:45 PM 31.6594 -90.2428 58° Northeast 470 541 31,000  Level Memphis Center
Fri 05:56:45 PM 31.7300 -90.1083 60° Northeast 481 554 31,000  Level Memphis Center
Fri 05:57:45 PM 31.8008 -89.9664 60° Northeast 488 562 31,000  Level Memphis Center
Fri 05:58:45 PM 31.8711 -89.8217 58° Northeast 499 574 31,000  Level Memphis Center
Fri 05:59:45 PM 31.9456 -89.6792 59° Northeast 499 574 31,000  Level Memphis Center
Fri 06:00:45 PM 32.0178 -89.5367 60° Northeast 499 574 31,000  Level Memphis Center
Fri 06:01:45 PM 32.0900 -89.3911 60° Northeast 504 580 31,000 -900 Level Memphis Center
Fri 06:02:45 PM 32.1575 -89.2506 58° Northeast 504 580 29,200 -1,850 Descending Memphis Center
Fri 06:03:45 PM 32.2231 -89.1244 60° Northeast 504 580 27,300 -1,900 Descending Memphis Center
Fri 06:04:45 PM 32.2886 -88.9886 60° Northeast 492 566 25,400 -1,650 Descending Memphis Center
Fri 06:05:45 PM 32.3539 -88.8547 52° Northeast 480 552 24,000 -800 Descending Memphis Center
Fri 06:06:45 PM 32.4297 -88.7378 51° Northeast 455 524 23,800 -950 Descending Memphis Center
Fri 06:07:45 PM 32.5033 -88.6281 51° Northeast 441 507 22,100 -1,400 Descending Memphis Center
Fri 06:08:45 PM 32.5789 -88.5181 52° Northeast 431 496 21,000 -550 Descending Memphis Center
Fri 06:09:45 PM 32.6525 -88.4081 50° Northeast 426 490 21,000  Level Memphis Center
Fri 06:10:45 PM 32.7319 -88.2953 52° Northeast 432 497 21,000 -37 Level Memphis Center
Fri 06:12:29 PM 32.8700 -88.0872 50° Northeast 462 532 20,900 -512 Descending Atlanta Center
Fri 06:13:29 PM 32.9464 -87.9794 51° Northeast 441 507 19,600 -1,350 Descending Atlanta Center
Fri 06:14:29 PM 33.0122 -87.8808 50° Northeast 431 496 18,200 -1,450 Descending Atlanta Center
Fri 06:15:29 PM 33.0886 -87.7703 53° Northeast 426 490 16,700 -1,550 Descending Atlanta Center
Fri 06:16:29 PM 33.1564 -87.6639 48° Northeast 420 483 15,100 -1,731 Descending Atlanta Center
Fri 06:17:13 PM 33.2108 -87.5917 53° Northeast 379 436 13,700 -1,838 Descending Atlanta Center
Fri 06:18:20 PM 33.2786 -87.4853 63° Northeast 345 397 11,700 -1,453 Descending Atlanta Center
Fri 06:19:21 PM 33.3164 -87.3972 72° East 293 337 10,600 -1,475 Descending Atlanta Center
Fri 06:20:22 PM 33.3397 -87.3111 74° East 277 319 8,700 -1,547 Descending Atlanta Center
Fri 06:21:29 PM 33.3608 -87.2222 73° East 235 270 7,300 -1,131 Descending Atlanta Center
Fri 06:22:24 PM 33.3769 -87.1608 74° East 225 259 6,400 -1,100 Descending Atlanta Center
Fri 06:23:29 PM 33.3978 -87.0744 71° East 230 265 5,100 -1,043 Descending Atlanta Center
Fri 06:24:19 PM 33.4139 -87.0178 66° East 235 270 4,400 -1,062 Descending Atlanta Center
Fri 06:25:22 PM 33.4406 -86.9464 44° Northeast 227 261 3,100 -1,180 Descending Atlanta Center
Fri 06:26:21 PM 33.4900 -86.8883 59° Northeast 251 289 2,000 -673 Descending Atlanta Center
Fri 06:27:09 PM 33.5142 -86.8392 55° Northeast 219 252 1,900 -541 Descending Atlanta Center
Fri 06:28:34 PM 33.5489 -86.7806 55° Northeast 141 162 800 -776 Descending Atlanta Center

Login

Don't have an account? Register now (free) for customized features, flight alerts, and more!